Time,TemperatureF,DewpointF,PressureIn,WindDirection,WindDirectionDegrees,WindSpeedMPH,WindSpeedGustMPH,Humidity,HourlyPrecipIn,Conditions,Clouds,dailyrainin,SoftwareType,DateUTC
2013-08-19 00:12:00,66.0,59.0,29.97,West,262,1.0,7.0,78,0.00,,,0.01,,2013-08-19 04:12:00,
2013-08-19 00:23:00,66.0,59.0,29.97,WSW,237,2.0,6.0,77,0.00,,,0.01,,2013-08-19 04:23:00,
2013-08-19 00:42:00,65.0,57.0,29.96,SW,236,3.0,5.0,76,0.00,,,0.01,,2013-08-19 04:42:00,
2013-08-19 00:53:00,65.0,57.0,29.96,SW,234,1.0,5.0,75,0.00,,,0.01,,2013-08-19 04:53:00,
2013-08-19 01:11:00,65.0,56.0,29.96,WSW,253,2.0,5.0,73,0.00,,,0.01,,2013-08-19 05:11:00,
2013-08-19 01:22:00,65.0,56.0,29.95,SW,233,2.0,5.0,74,0.00,,,0.01,,2013-08-19 05:22:00,
2013-08-19 01:42:00,65.0,56.0,29.95,West,262,1.0,5.0,74,0.00,,,0.01,,2013-08-19 05:42:00,
2013-08-19 01:52:00,64.0,57.0,29.95,WNW,283,3.0,6.0,77,0.00,,,0.01,,2013-08-19 05:52:00,
2013-08-19 02:11:00,64.0,57.0,29.95,WSW,250,3.0,7.0,78,0.00,,,0.01,,2013-08-19 06:11:00,
2013-08-19 02:21:00,64.0,57.0,29.94,WNW,294,2.0,4.0,78,0.00,,,0.01,,2013-08-19 06:21:00,
2013-08-19 02:42:00,64.0,57.0,29.94,SW,233,0.0,4.0,78,0.00,,,0.01,,2013-08-19 06:42:00,
2013-08-19 02:52:00,64.0,57.0,29.94,WSW,241,2.0,5.0,78,0.00,,,0.01,,2013-08-19 06:52:00,
2013-08-19 03:12:00,63.0,57.0,29.93,WSW,247,0.0,4.0,80,0.00,,,0.01,,2013-08-19 07:12:00,
2013-08-19 03:21:00,63.0,57.0,29.93,SSW,199,2.0,4.0,80,0.00,,,0.01,,2013-08-19 07:21:00,
2013-08-19 03:42:00,63.0,57.0,29.93,SW,230,2.0,4.0,80,0.00,,,0.01,,2013-08-19 07:42:00,
2013-08-19 03:52:00,63.0,56.0,29.93,West,266,1.0,7.0,79,0.00,,,0.01,,2013-08-19 07:52:00,
2013-08-19 04:11:00,63.0,56.0,29.92,WSW,254,2.0,8.0,78,0.00,,,0.01,,2013-08-19 08:11:00,
2013-08-19 04:21:00,63.0,56.0,29.92,WSW,246,3.0,6.0,77,0.00,,,0.01,,2013-08-19 08:21:00,
2013-08-19 04:42:00,63.0,56.0,29.92,WNW,290,2.0,6.0,77,0.00,,,0.01,,2013-08-19 08:42:00,
2013-08-19 04:52:00,63.0,56.0,29.92,West,276,2.0,5.0,78,0.00,,,0.01,,2013-08-19 08:52:00,
2013-08-19 05:11:00,63.0,56.0,29.92,WNW,282,2.0,6.0,78,0.00,,,0.01,,2013-08-19 09:11:00,
2013-08-19 05:22:00,63.0,56.0,29.92,West,272,2.0,4.0,78,0.00,,,0.01,,2013-08-19 09:22:00,
2013-08-19 05:43:00,63.0,56.0,29.92,WNW,297,2.0,5.0,78,0.00,,,0.01,,2013-08-19 09:43:00,
2013-08-19 05:53:00,63.0,56.0,29.92,West,272,2.0,6.0,78,0.00,,,0.01,,2013-08-19 09:53:00,
2013-08-19 06:12:00,63.0,56.0,29.92,NW,311,2.0,5.0,79,0.00,,,0.01,,2013-08-19 10:12:00,
2013-08-19 06:23:00,63.0,57.0,29.92,WNW,283,1.0,6.0,80,0.00,,,0.01,,2013-08-19 10:23:00,
2013-08-19 06:43:00,63.0,57.0,29.92,WNW,298,1.0,5.0,81,0.00,,,0.01,,2013-08-19 10:43:00,
2013-08-19 06:52:00,63.0,57.0,29.92,NW,304,2.0,6.0,82,0.00,,,0.01,,2013-08-19 10:52:00,
2013-08-19 07:12:00,63.0,57.0,29.92,WNW,294,2.0,5.0,82,0.00,,,0.01,,2013-08-19 11:12:00,
2013-08-19 07:22:00,64.0,58.0,29.92,West,263,2.0,5.0,81,0.00,,,0.01,,2013-08-19 11:22:00,
2013-08-19 07:45:00,64.0,58.0,29.92,NW,310,2.0,6.0,81,0.00,,,0.01,,2013-08-19 11:45:00,
2013-08-19 07:52:00,65.0,59.0,29.92,West,270,2.0,7.0,80,0.00,,,0.01,,2013-08-19 11:52:00,
2013-08-19 08:11:00,66.0,59.0,29.92,WNW,289,3.0,9.0,79,0.00,,,0.01,,2013-08-19 12:11:00,
2013-08-19 08:21:00,67.0,60.0,29.91,WNW,288,3.0,8.0,78,0.00,,,0.01,,2013-08-19 12:21:00,
2013-08-19 08:42:00,68.0,61.0,29.92,WNW,289,4.0,8.0,78,0.00,,,0.01,,2013-08-19 12:42:00,
2013-08-19 08:52:00,69.0,61.0,29.91,WNW,288,3.0,8.0,76,0.00,,,0.01,,2013-08-19 12:52:00,
2013-08-19 09:13:00,70.0,62.0,29.91,West,261,2.0,10.0,75,0.00,,,0.01,,2013-08-19 13:13:00,
2013-08-19 09:22:00,72.0,62.0,29.91,NW,312,4.0,8.0,70,0.00,,,0.01,,2013-08-19 13:22:00,
2013-08-19 09:42:00,74.0,62.0,29.91,WNW,294,1.0,7.0,67,0.00,,,0.01,,2013-08-19 13:42:00,
2013-08-19 09:52:00,75.0,63.0,29.90,SW,233,4.0,9.0,66,0.00,,,0.01,,2013-08-19 13:52:00,
2013-08-19 10:11:00,75.0,62.0,29.90,WNW,292,2.0,6.0,64,0.00,,,0.01,,2013-08-19 14:11:00,
2013-08-19 10:22:00,74.0,61.0,29.90,WSW,239,5.0,12.0,65,0.00,,,0.01,,2013-08-19 14:22:00,
2013-08-19 10:42:00,75.0,62.0,29.89,WNW,282,2.0,13.0,65,0.00,,,0.01,,2013-08-19 14:42:00,
2013-08-19 10:52:00,76.0,61.0,29.89,West,265,1.0,11.0,60,0.00,,,0.01,,2013-08-19 14:52:00,
2013-08-19 11:11:00,78.0,61.0,29.89,SW,236,5.0,9.0,56,0.00,,,0.01,,2013-08-19 15:11:00,
2013-08-19 11:23:00,78.0,61.0,29.89,WSW,252,6.0,11.0,55,0.00,,,0.01,,2013-08-19 15:23:00,
2013-08-19 11:44:00,79.0,60.0,29.89,WNW,302,7.0,12.0,53,0.00,,,0.01,,2013-08-19 15:44:00,
2013-08-19 11:54:00,79.0,60.0,29.89,WSW,247,5.0,12.0,53,0.00,,,0.01,,2013-08-19 15:54:00,
2013-08-19 12:13:00,78.0,58.0,29.88,WSW,256,7.0,11.0,51,0.00,,,0.01,,2013-08-19 16:13:00,
2013-08-19 12:23:00,80.0,61.0,29.88,West,276,2.0,8.0,52,0.00,,,0.01,,2013-08-19 16:23:00,
2013-08-19 12:47:00,79.0,60.0,29.88,NNW,329,2.0,11.0,53,0.00,,,0.01,,2013-08-19 16:47:00,
2013-08-19 13:13:00,80.0,60.0,29.88,NW,317,6.0,15.0,50,0.00,,,0.01,,2013-08-19 17:13:00,
2013-08-19 13:30:00,80.0,-99.9,29.87,NW,313,2.0,13.0,52,0.00,,,0.01,,2013-08-19 17:30:00,
2013-08-19 13:49:00,80.0,59.0,29.86,WNW,293,2.0,7.0,49,0.00,,,0.01,,2013-08-19 17:49:00,
2013-08-19 13:57:00,80.0,56.0,29.87,West,266,7.0,15.0,44,0.00,,,0.01,,2013-08-19 17:57:00,
2013-08-19 14:05:00,80.0,56.0,29.87,West,266,7.0,15.0,44,0.00,,,0.01,,2013-08-19 18:05:00,
2013-08-19 14:19:00,80.0,56.0,29.87,West,266,7.0,15.0,44,0.00,,,0.01,,2013-08-19 18:19:00,
2013-08-19 14:28:00,80.0,59.0,29.86,SW,236,5.0,11.0,48,0.00,,,0.01,,2013-08-19 18:28:00,
2013-08-19 14:50:00,-999.0,-99.9,29.86,SW,234,3.0,9.0,50,0.00,,,0.01,,2013-08-19 18:50:00,
2013-08-19 15:00:00,-999.0,-99.9,29.86,SW,234,3.0,9.0,50,0.00,,,0.01,,2013-08-19 19:00:00,
2013-08-19 15:16:00,80.0,59.0,29.85,West,270,6.0,16.0,48,0.00,,,0.01,,2013-08-19 19:16:00,
2013-08-19 15:30:00,-999.0,-99.9,29.85,NW,306,3.0,8.0,49,0.00,,,0.01,,2013-08-19 19:30:00,
2013-08-19 15:50:00,80.0,58.0,29.85,West,279,5.0,14.0,47,0.00,,,0.01,,2013-08-19 19:50:00,
2013-08-19 15:59:00,79.0,58.0,29.85,WNW,286,3.0,12.0,48,0.00,,,0.01,,2013-08-19 19:59:00,
2013-08-19 16:20:00,79.0,59.0,29.85,WSW,252,5.0,14.0,51,0.00,,,0.01,,2013-08-19 20:20:00,
2013-08-19 16:30:00,79.0,-99.9,29.84,West,271,3.0,11.0,51,0.00,,,0.01,,2013-08-19 20:30:00,
2013-08-19 16:50:00,79.0,59.0,29.84,NNW,344,2.0,11.0,51,0.00,,,0.01,,2013-08-19 20:50:00,
2013-08-19 17:00:00,-999.0,-99.9,29.84,WNW,301,1.0,10.0,-999,-99.99,,,-99.99,,2013-08-19 21:00:00,
2013-08-19 17:16:00,78.0,62.0,29.84,WSW,248,4.0,9.0,58,0.00,,,0.01,,2013-08-19 21:16:00,
2013-08-19 17:25:00,78.0,63.0,29.84,West,274,4.0,8.0,60,0.00,,,0.01,,2013-08-19 21:25:00,
2013-08-19 17:46:00,78.0,62.0,29.84,WSW,255,5.0,13.0,59,0.00,,,0.01,,2013-08-19 21:46:00,
2013-08-19 17:54:00,77.0,62.0,29.84,NW,324,6.0,13.0,60,0.00,,,0.01,,2013-08-19 21:54:00,
2013-08-19 18:25:00,77.0,63.0,29.85,WSW,248,3.0,13.0,62,0.00,,,0.01,,2013-08-19 22:25:00,
2013-08-19 18:44:00,77.0,63.0,29.85,SW,226,6.0,10.0,63,0.00,,,0.01,,2013-08-19 22:44:00,
2013-08-19 18:54:00,76.0,63.0,29.85,WSW,239,2.0,9.0,64,0.00,,,0.01,,2013-08-19 22:54:00,
2013-08-19 19:15:00,76.0,63.0,29.85,WSW,246,5.0,11.0,65,0.00,,,0.01,,2013-08-19 23:15:00,
2013-08-19 19:25:00,76.0,64.0,29.85,WSW,249,5.0,11.0,66,0.00,,,0.01,,2013-08-19 23:25:00,
2013-08-19 19:48:00,76.0,65.0,29.85,NNE,30,3.0,10.0,68,0.00,,,0.01,,2013-08-19 23:48:00,
2013-08-19 19:55:00,75.0,64.0,29.85,West,266,4.0,12.0,68,0.00,,,0.01,,2013-08-19 23:55:00,
2013-08-19 20:11:00,75.0,64.0,29.85,WSW,241,5.0,9.0,68,0.00,,,0.01,,2013-08-20 00:11:00,
2013-08-19 20:24:00,75.0,64.0,29.86,WSW,244,3.0,7.0,69,0.00,,,0.01,,2013-08-20 00:24:00,
2013-08-19 20:42:00,74.0,64.0,29.86,WSW,244,3.0,11.0,71,0.00,,,0.00,,2013-08-20 00:42:00,
2013-08-19 20:52:00,74.0,64.0,29.86,WNW,284,1.0,8.0,71,0.00,,,0.00,,2013-08-20 00:52:00,
2013-08-19 21:11:00,74.0,64.0,29.86,West,263,1.0,7.0,72,0.00,,,0.00,,2013-08-20 01:11:00,
2013-08-19 21:22:00,74.0,64.0,29.87,WNW,283,4.0,10.0,71,0.00,,,0.00,,2013-08-20 01:22:00,
2013-08-19 21:42:00,74.0,64.0,29.87,SW,217,2.0,8.0,70,0.00,,,0.00,,2013-08-20 01:42:00,
2013-08-19 21:52:00,74.0,63.0,29.87,West,261,2.0,8.0,69,0.00,,,0.00,,2013-08-20 01:52:00,
2013-08-19 22:11:00,74.0,63.0,29.87,WSW,258,2.0,8.0,68,0.00,,,0.00,,2013-08-20 02:11:00,
2013-08-19 22:21:00,73.0,62.0,29.86,SW,229,3.0,7.0,69,0.00,,,0.00,,2013-08-20 02:21:00,
2013-08-19 22:42:00,73.0,62.0,29.86,West,280,0.0,7.0,69,0.00,,,0.00,,2013-08-20 02:42:00,
2013-08-19 22:52:00,73.0,63.0,29.86,West,274,2.0,5.0,70,0.00,,,0.00,,2013-08-20 02:52:00,
2013-08-19 23:11:00,73.0,63.0,29.87,WNW,294,3.0,6.0,70,0.00,,,0.00,,2013-08-20 03:11:00,
2013-08-19 23:22:00,73.0,63.0,29.86,West,261,0.0,5.0,70,0.00,,,0.00,,2013-08-20 03:22:00,
2013-08-19 23:43:00,73.0,63.0,29.86,West,260,2.0,6.0,70,0.00,,,0.00,,2013-08-20 03:43:00,
2013-08-19 23:54:00,73.0,63.0,29.87,WSW,246,1.0,6.0,71,0.00,,,0.00,,2013-08-20 03:54:00,